Terminal Aerodrome Forecast
Issued by NWS

Home | Current Version | Previous Version | Text Only | Print | Product List | Glossary On
Versions: 1 2 3 4 5 6 7 8 9 10 11 12 13 14 15 16 17
000
FTAK31 PAJN 010500
TAFAPG
TAF
PAPG 010535Z 0106/0206 VRB03KT P6SM BKN150
     FM011200 36006KT P6SM BKN200
     FM011800 06005KT P6SM SCT100 BKN200
     FM020300 VRB04KT P6SM BKN060 BKN120
      AMD LTD TO CLD VIS AND WIND 0106/0115=

USA.gov is the U.S. government's official web portal to all federal, state and local government web resources and services.